KFFZ

Falcon Field Airport

Mesa, Arizona, USA
METAR KFFZ 170248Z 09003KT 30SM SKC 18/M03 A3013
Observed Flight Rules
Jan-17 @ 02:48 UTC (8 hours ago) Visual Flight Rules
Wind Visibility Clouds
90° at 3 knots 30 miles
  • Clear skies
Temperatures Readings
Current 18°C / 64°F
Dewpoint -3°C / 27°F
Humidity 24%
Altimeter 30.13" Hg
Pressure 1020 hPa
Elevation 424
METAR KFFZ 170248Z 09003KT 30SM SKC 18/M03 A3013
Observed Flight Rules
Jan-17 @ 02:48 UTC
(8 hours ago)
VFR
Wind Visibility
90° at 3 knots 30 miles
Clouds
  • Clear skies
Temperature Dewpoint
18°C / 64°F -3°C / 27°F
Humidity Altimeter Pressure
24% 30.13" Hg 1020 hPa